METAR Data
IDs: Format: Raw Decoded Include TAF

Data at: 0129 UTC 06 Dec 2020

METAR for:KHCR (Heber City Muni, UT, US)
Text:KHCR 060115Z AUTO 00000KT 10SM CLR M05/M11 A3037 RMK AO2
Temperature: -5.0°C ( 23°F)
Dewpoint:-11.0°C ( 12°F) [RH = 63%]
Pressure (altimeter):30.37 inches Hg (1028.5 mb)
Winds:calm
Visibility:10 or more sm (16+ km)
Ceiling:at least 12,000 feet AGL
Clouds:sky clear below 12,000 feet AGL
QC Flag:automated observation with no human augmentation